Terminal Aerodrome Forecast
Issued by NWS

Home | Current Version | Previous Version | Text Only | Print | Product List | Glossary On
Versions: 1 2 3 4 5 6 7 8 9 10 11 12 13 14
000
FTUS44 KJAN 280602 RRA
TAFHKS
TAF
KHKS 280602Z 2806/2906 04004KT P6SM FEW050 SCT090
     FM281500 03007KT P6SM VCSH BKN090 BKN130
     FM281700 02010G18KT P6SM VCTS BKN050CB BKN090
     FM290300 01006KT P6SM SCT050 BKN090=

USA.gov is the U.S. government's official web portal to all federal, state and local government web resources and services.